Accueil
METAR-TAF:

METAR-TAF

Aéroports :

Volgograd, Russie

Aéroport de Volgograd

latitude: 48-47N, longitude: 044-22E, altitude: 145 m

Observation

Le bulletin a été fait il y a 43 minutes, à 22:00 UTC
Vent 4 kt de sud, variant entre sud/sud-est et sud-ouest
Température 20°C
Humidité 49%
Pression 1012 hPa
Visibilité 10 km ou plus
pas de nuages en-dessous de 1500 mètres et pas de cumulonimbus.

METAR: URWW 272200Z 19002MPS 160V220 CAVOK 20/09 Q1012 R06/010070 NOSIG

Heure: 01:43 (22:43 UTC)

Prévision

Le bulletin a été fait il y a 2 heures et 46 minutes, à 19:57 UTC
Prévision valable du 27 à 21 UTC au 28 à 06 UTC
Vent 10 kt de sud/sud-est avec des rafales jusqu'à 19 kt
Visibilité 10 km ou plus
Nuages épars à une hauteur de 4000 ft, Cumulonimbus.
Temporairement
du 27 à 21 UTC au 28 à 06 UTC
Vent 6 kt de sud avec des rafales jusqu'à 16 kt

TAF: URWW 271957Z 2721/2806 15005G10MPS 9999 SCT040CB TEMPO 2721/2806 19003G08MPS

Observations et prévisions météorologiques de plus de 4000 aéroports (messages METAR et TAF).

Les stations disponibles sont représentées par des disques jaunes et rouges sur la carte.

Passer la souris dessus pour voir le nom de la station.

Cliquer dessus pour voir les observations et prévisions météorologiques.

Pour changer de carte: cliquez sur les boutons verts avec une croix noire pour zoomer, sur le bouton vert avec un tiret pour effectuer un zoom arrière, ou sur les flèches vertes pour les cartes adjacentes.


METAR-TAF: